Time;durP1;ratioP1;P1;durP2;ratioP2;P2;SDS_P1;SDS_P2;PMS_P1;PMS_P2;Temp;Humidity;BMP_temperature;BMP_pressure;BME280_temperature;BME280_humidity;BME280_pressure;Samples;Min_cycle;Max_cycle;Signal;HPM_P1;HPM_P2
2022/09/23 00:02:20;;;;;;;;;19.50;17.50;;;;;16.53;51.43;101358.94;4901711;29;46635;-73
2022/09/23 00:04:46;;;;;;;;;20.50;18.25;;;;;16.57;51.44;101371.34;4901960;28;45446;-73
2022/09/23 00:07:11;;;;;;;;;18.00;16.75;;;;;16.53;51.33;101364.31;4901041;28;45433;-73
2022/09/23 00:09:36;;;;;;;;;20.00;15.75;;;;;16.55;51.37;101367.81;4901807;29;45432;-73
2022/09/23 00:12:02;;;;;;;;;19.50;15.25;;;;;16.52;51.24;101365.25;4901907;29;45406;-73
2022/09/23 00:14:28;;;;;;;;;14.75;14.00;;;;;16.43;51.12;101346.84;4888149;29;45368;-73
2022/09/23 00:16:53;;;;;;;;;16.00;14.25;;;;;16.43;51.27;101341.47;4883002;29;45441;-73
2022/09/23 00:19:18;;;;;;;;;13.50;12.25;;;;;16.52;51.27;101362.56;4899676;29;45317;-73
2022/09/23 00:21:43;;;;;;;;;11.75;11.00;;;;;16.47;51.14;101354.72;4904500;29;49396;-73
2022/09/23 00:24:09;;;;;;;;;14.25;14.25;;;;;16.41;51.36;101335.28;4905217;29;45294;-73
2022/09/23 00:26:34;;;;;;;;;16.25;13.25;;;;;16.40;51.17;101342.47;4905378;29;45481;-73
2022/09/23 00:28:59;;;;;;;;;15.00;15.00;;;;;16.41;51.01;101336.13;4901320;28;45463;-74
2022/09/23 00:31:26;;;;;;;;;14.50;13.50;;;;;16.36;50.72;101331.94;4885967;29;45341;-73
2022/09/23 00:33:58;;;;;;;;;13.00;13.00;;;;;16.46;50.88;101354.78;4884701;29;45645;-73
2022/09/23 00:36:25;;;;;;;;;14.25;13.25;;;;;16.44;50.89;101341.38;4901091;28;45430;-73
2022/09/23 00:38:51;;;;;;;;;14.00;14.00;;;;;16.46;51.19;101341.31;4905085;29;45268;-73
2022/09/23 00:41:17;;;;;;;;;15.75;15.00;;;;;16.34;50.70;101317.63;4892288;29;45277;-74
2022/09/23 00:43:52;;;;;;;;;14.50;13.00;;;;;16.42;50.82;101332.50;4905097;29;45349;-73
2022/09/23 00:46:27;;;;;;;;;12.75;12.50;;;;;16.43;50.80;101338.75;4893468;28;45300;-74
2022/09/23 00:49:23;;;;;;;;;13.25;13.00;;;;;16.42;51.06;101331.63;4904601;29;45413;-73
2022/09/23 00:51:56;;;;;;;;;13.25;13.25;;;;;16.37;51.08;101333.66;4894181;29;45496;-73
2022/09/23 00:54:25;;;;;;;;;13.75;12.75;;;;;16.30;51.16;101317.81;4904741;29;45588;-73
2022/09/23 00:56:50;;;;;;;;;15.00;15.00;;;;;16.35;51.60;101325.66;4904874;29;45429;-73
2022/09/23 00:59:16;;;;;;;;;13.75;13.75;;;;;16.36;51.26;101324.72;4904790;29;45456;-73
2022/09/23 01:01:43;;;;;;;;;16.00;13.25;;;;;16.34;51.37;101323.91;4904333;29;45782;-73
2022/09/23 01:04:08;;;;;;;;;13.00;12.75;;;;;16.29;51.04;101326.81;4904712;29;45657;-73
2022/09/23 01:06:34;;;;;;;;;13.25;11.75;;;;;16.24;51.28;101311.84;4904496;28;45312;-73
2022/09/23 01:08:59;;;;;;;;;16.00;14.00;;;;;16.22;51.38;101311.00;4904519;29;45345;-74
2022/09/23 01:11:36;;;;;;;;;15.25;13.50;;;;;16.27;51.23;101323.34;4904202;29;45552;-74
2022/09/23 01:14:15;;;;;;;;;10.75;10.75;;;;;16.27;51.28;101322.44;4903614;28;45337;-73
2022/09/23 01:16:52;;;;;;;;;13.50;12.50;;;;;16.13;51.08;101308.75;4904400;29;45357;-73
2022/09/23 01:19:48;;;;;;;;;12.50;11.50;;;;;16.24;51.14;101325.31;4904139;29;45448;-73
2022/09/23 01:22:40;;;;;;;;;11.75;11.75;;;;;16.22;51.46;101319.09;4895668;29;45365;-73
2022/09/23 01:25:07;;;;;;;;;12.00;12.00;;;;;16.20;51.46;101318.28;4887342;29;45713;-73
2022/09/23 01:28:04;;;;;;;;;14.75;14.25;;;;;16.18;51.54;101315.66;4887303;29;45376;-73
2022/09/23 01:30:29;;;;;;;;;13.25;12.00;;;;;16.17;51.52;101311.25;4904073;29;45569;-73
2022/09/23 01:32:58;;;;;;;;;13.50;12.50;;;;;16.15;51.61;101309.56;4903234;29;45472;-73
2022/09/23 01:35:42;;;;;;;;;12.50;10.75;;;;;16.13;51.77;101303.38;4893251;29;45371;-73
2022/09/23 01:38:10;;;;;;;;;12.75;11.00;;;;;16.11;51.69;101301.63;4898274;28;45377;-73
2022/09/23 01:40:58;;;;;;;;;15.75;13.75;;;;;16.06;51.69;101290.19;4886223;29;45601;-73
2022/09/23 01:43:30;;;;;;;;;11.50;11.00;;;;;15.99;51.51;101277.97;4902611;28;45459;-73
2022/09/23 01:45:59;;;;;;;;;11.25;11.25;;;;;16.06;51.68;101283.94;4886686;29;45571;-73
2022/09/23 01:49:09;;;;;;;;;15.25;14.00;;;;;16.06;51.58;101292.00;4903858;29;45409;-73
2022/09/23 01:51:41;;;;;;;;;11.25;11.25;;;;;15.94;51.68;101280.00;4790120;29;45412;-73
2022/09/23 01:54:17;;;;;;;;;17.75;15.25;;;;;16.00;51.99;101289.59;4870175;29;47402;-73
2022/09/23 01:56:51;;;;;;;;;11.00;11.00;;;;;15.98;51.67;101288.81;4886660;29;45365;-73
2022/09/23 01:59:49;;;;;;;;;11.25;11.00;;;;;15.81;51.71;101266.22;4886847;29;45518;-73
2022/09/23 02:02:30;;;;;;;;;12.00;11.50;;;;;15.99;52.02;101299.50;4881748;29;45614;-74
2022/09/23 02:05:16;;;;;;;;;13.25;11.25;;;;;15.99;51.95;101307.59;4903624;28;45764;-73
2022/09/23 02:07:53;;;;;;;;;13.25;13.25;;;;;15.98;51.96;101296.88;4903509;28;45765;-73
2022/09/23 02:10:35;;;;;;;;;14.00;13.00;;;;;15.89;52.23;101282.91;4903800;29;45539;-73
2022/09/23 02:13:14;;;;;;;;;10.75;9.50;;;;;15.96;52.07;101294.25;4898573;29;45311;-73
2022/09/23 02:15:48;;;;;;;;;12.75;11.50;;;;;15.91;52.21;101283.69;4903411;29;45455;-73
2022/09/23 02:18:23;;;;;;;;;11.75;11.00;;;;;15.88;52.07;101277.56;4903292;29;45498;-73
2022/09/23 02:20:55;;;;;;;;;12.00;11.00;;;;;15.93;52.36;101295.25;4903779;29;45391;-73
2022/09/23 02:23:38;;;;;;;;;9.25;9.25;;;;;15.93;52.50;101295.25;4903445;29;45264;-73
2022/09/23 02:26:22;;;;;;;;;12.50;11.25;;;;;15.96;52.55;101298.78;4903298;28;45432;-73
2022/09/23 02:29:08;;;;;;;;;11.25;11.25;;;;;15.94;52.18;101293.47;4886380;29;45495;-73
2022/09/23 02:31:46;;;;;;;;;12.25;10.00;;;;;15.92;52.53;101288.16;4891128;28;45472;-73
2022/09/23 02:34:16;;;;;;;;;11.50;11.50;;;;;15.92;52.65;101296.22;4901966;28;45374;-73
2022/09/23 02:37:00;;;;;;;;;12.00;11.25;;;;;15.92;52.73;101288.16;4901663;28;46566;-73
2022/09/23 02:39:36;;;;;;;;;12.00;10.50;;;;;15.88;52.77;101278.44;4903163;29;45619;-73
2022/09/23 02:42:08;;;;;;;;;11.50;10.75;;;;;15.86;52.78;101274.97;4903003;28;45413;-73
2022/09/23 02:44:34;;;;;;;;;13.75;11.75;;;;;15.89;52.38;101276.66;4903098;29;45392;-73
2022/09/23 02:47:00;;;;;;;;;12.00;10.75;;;;;15.90;52.58;101292.72;4902656;29;46619;-73
2022/09/23 02:49:28;;;;;;;;;9.50;9.00;;;;;15.75;52.49;101255.69;4903026;29;45430;-73
2022/09/23 02:51:55;;;;;;;;;11.75;11.50;;;;;15.85;52.63;101270.50;4903167;29;45268;-73
2022/09/23 02:54:27;;;;;;;;;13.00;10.25;;;;;15.84;52.39;101266.09;4903046;29;45273;-73
2022/09/23 02:56:53;;;;;;;;;11.75;11.75;;;;;15.78;52.27;101258.28;4902973;29;45531;-73
2022/09/23 02:59:21;;;;;;;;;13.25;10.00;;;;;15.88;52.51;101273.06;4885250;29;45360;-73
2022/09/23 03:02:15;;;;;;;;;12.25;10.00;;;;;15.88;52.71;101277.56;4902858;29;45459;-73
2022/09/23 03:04:46;;;;;;;;;12.00;11.00;;;;;15.86;52.67;101272.25;4902809;28;45491;-73
2022/09/23 03:07:49;;;;;;;;;13.00;11.00;;;;;15.86;52.46;101266.88;4890187;29;46035;-73
2022/09/23 03:10:32;;;;;;;;;10.00;10.00;;;;;15.85;52.39;101269.63;4885583;29;45669;-74
2022/09/23 03:13:03;;;;;;;;;13.75;12.25;;;;;15.86;52.51;101271.41;4889024;29;45338;-73
2022/09/23 03:15:56;;;;;;;;;12.00;12.00;;;;;15.87;52.45;101262.34;4902708;29;45595;-73
2022/09/23 03:18:30;;;;;;;;;10.00;10.00;;;;;15.83;52.57;101260.78;4902464;29;46175;-73
2022/09/23 03:21:02;;;;;;;;;7.50;7.50;;;;;15.86;52.59;101266.00;4902321;29;45389;-73
2022/09/23 03:23:35;;;;;;;;;11.25;11.25;;;;;15.86;52.89;101266.88;4891503;29;45388;-73
2022/09/23 03:26:11;;;;;;;;;12.25;11.25;;;;;15.86;52.81;101260.63;4902558;29;45344;-73
2022/09/23 03:28:40;;;;;;;;;11.00;10.25;;;;;15.74;53.02;101246.75;4900944;28;46213;-73
2022/09/23 03:31:07;;;;;;;;;11.25;10.50;;;;;15.83;53.09;101269.72;4901746;28;45713;-73
2022/09/23 03:33:34;;;;;;;;;13.00;10.25;;;;;15.78;53.06;101258.28;4902664;29;45392;-73
2022/09/23 03:38:53;;;;;;;;;10.75;10.25;;;;;15.79;53.39;101261.88;4902392;29;45441;-73
2022/09/23 03:41:30;;;;;;;;;11.00;11.00;;;;;15.73;53.41;101250.38;4890094;29;45271;-73
2022/09/23 03:43:58;;;;;;;;;11.00;11.00;;;;;15.73;53.49;101254.91;4902295;29;45324;-72
2022/09/23 03:46:29;;;;;;;;;11.50;9.00;;;;;15.77;53.37;101261.94;4902069;29;45756;-74
2022/09/23 03:49:08;;;;;;;;;12.00;10.75;;;;;15.71;53.50;101259.47;4884933;29;47766;-73
2022/09/23 03:51:33;;;;;;;;;12.25;12.00;;;;;15.73;53.76;101265.66;4902033;29;45447;-73
2022/09/23 03:53:58;;;;;;;;;12.00;11.00;;;;;15.75;53.81;101274.53;4902669;29;45901;-73
2022/09/23 03:56:24;;;;;;;;;13.00;12.25;;;;;15.62;53.88;101255.41;4890954;29;46669;-73
2022/09/23 03:58:49;;;;;;;;;14.25;13.00;;;;;15.72;53.55;101264.78;4890196;29;58379;-73
2022/09/23 04:01:15;;;;;;;;;14.50;11.50;;;;;15.63;53.79;101257.13;4890768;29;45612;-73
2022/09/23 04:03:40;;;;;;;;;14.00;12.00;;;;;15.62;53.58;101255.41;4908263;29;45862;-73
2022/09/23 04:06:06;;;;;;;;;12.50;12.25;;;;;15.67;53.77;101269.50;4908310;28;45531;-74
2022/09/23 04:08:31;;;;;;;;;15.75;14.00;;;;;15.70;53.88;101273.88;4908157;29;45541;-73
2022/09/23 04:11:01;;;;;;;;;16.25;14.25;;;;;15.72;54.07;101278.25;4908232;29;45368;-73
2022/09/23 04:13:28;;;;;;;;;10.75;10.75;;;;;15.62;54.02;101262.56;4907317;28;46859;-74
2022/09/23 04:15:53;;;;;;;;;14.75;12.75;;;;;15.64;53.86;101261.56;4907583;28;45910;-73
2022/09/23 04:18:20;;;;;;;;;15.00;13.00;;;;;15.68;53.90;101278.44;4890998;29;47099;-73
2022/09/23 04:20:45;;;;;;;;;15.75;13.50;;;;;15.71;53.84;101275.63;4908146;29;45630;-73
2022/09/23 04:23:10;;;;;;;;;12.75;12.75;;;;;15.65;53.72;101263.34;4908189;29;45376;-73
2022/09/23 04:25:43;;;;;;;;;13.75;12.00;;;;;15.62;53.66;101266.16;4907946;28;47641;-73
2022/09/23 04:28:08;;;;;;;;;9.50;9.50;;;;;15.62;53.68;101266.16;4908195;29;45512;-73
2022/09/23 04:30:40;;;;;;;;;14.00;11.00;;;;;15.60;53.52;101261.78;4907789;29;45454;-73
2022/09/23 04:33:05;;;;;;;;;12.50;11.75;;;;;15.63;53.57;101264.34;4891286;29;45559;-73
2022/09/23 04:35:34;;;;;;;;;10.25;8.25;;;;;15.64;53.80;101264.28;4896301;28;45404;-73
2022/09/23 04:37:59;;;;;;;;;10.00;10.00;;;;;15.59;53.86;101260.06;4907362;29;46403;-72
2022/09/23 04:40:24;;;;;;;;;10.25;9.75;;;;;15.57;53.93;101250.22;4907961;29;45503;-73
2022/09/23 04:42:49;;;;;;;;;13.25;13.25;;;;;15.65;53.95;101257.06;4906828;28;45523;-73
2022/09/23 04:45:15;;;;;;;;;11.75;10.50;;;;;15.56;54.17;101244.91;4907240;28;45318;-73
2022/09/23 04:47:40;;;;;;;;;13.75;12.75;;;;;15.46;54.06;101230.13;4907474;28;54237;-73
2022/09/23 04:50:06;;;;;;;;;12.75;11.50;;;;;15.63;54.06;101256.25;4890755;29;45793;-73
2022/09/23 04:52:32;;;;;;;;;10.00;10.00;;;;;15.58;54.33;101245.69;4907894;29;45487;-73
2022/09/23 04:54:57;;;;;;;;;13.50;13.50;;;;;15.60;54.24;101251.88;4907838;29;45401;-73
2022/09/23 04:57:23;;;;;;;;;14.25;14.00;;;;;15.53;54.31;101237.81;4907696;28;45687;-73
2022/09/23 04:59:48;;;;;;;;;18.25;16.00;;;;;15.52;54.46;101244.19;4907805;29;45332;-73
2022/09/23 05:02:14;;;;;;;;;13.50;12.25;;;;;15.53;54.55;101243.22;4907544;29;45352;-73
2022/09/23 05:04:40;;;;;;;;;15.25;14.25;;;;;15.59;54.70;101251.97;4907679;28;45346;-73
2022/09/23 05:07:05;;;;;;;;;17.25;15.00;;;;;15.57;54.65;101247.53;4905260;28;46723;-73
2022/09/23 05:09:30;;;;;;;;;16.00;14.25;;;;;15.46;54.58;101233.69;4904426;29;45424;-73
2022/09/23 05:11:56;;;;;;;;;14.75;14.75;;;;;15.56;54.75;101243.06;4886607;29;45401;-73
2022/09/23 05:14:21;;;;;;;;;14.75;12.75;;;;;15.50;54.93;101234.41;4904161;29;45571;-74
2022/09/23 05:16:46;;;;;;;;;16.25;15.25;;;;;15.55;54.80;101244.03;4887077;29;48491;-73
2022/09/23 05:19:12;;;;;;;;;17.00;13.75;;;;;15.50;54.73;101232.63;4887380;29;45690;-73
2022/09/23 05:21:37;;;;;;;;;17.00;17.00;;;;;15.55;54.83;101235.06;4904190;29;45330;-73
2022/09/23 05:24:03;;;;;;;;;16.75;16.75;;;;;15.54;55.13;101239.59;4904352;29;45303;-73
2022/09/23 05:26:30;;;;;;;;;15.50;13.75;;;;;15.55;55.08;101243.16;4887145;29;47577;-73
2022/09/23 05:28:57;;;;;;;;;16.25;15.50;;;;;15.47;55.10;101223.78;4904199;29;45459;-73
2022/09/23 05:31:24;;;;;;;;;16.75;14.50;;;;;15.55;55.10;101235.97;4886219;29;45742;-73
2022/09/23 05:33:52;;;;;;;;;17.50;16.00;;;;;15.56;55.05;101236.84;4904066;29;45486;-73
2022/09/23 05:36:20;;;;;;;;;16.25;16.25;;;;;15.56;55.16;101243.06;4900014;29;46193;-73
2022/09/23 05:38:47;;;;;;;;;16.25;15.75;;;;;15.49;55.34;101236.22;4886831;29;45851;-73
2022/09/23 05:41:13;;;;;;;;;17.25;17.25;;;;;15.49;55.32;101236.22;4886696;29;45655;-73
2022/09/23 05:43:39;;;;;;;;;19.50;17.75;;;;;15.55;55.25;101238.66;4902860;29;45383;-74
2022/09/23 05:46:14;;;;;;;;;16.75;16.00;;;;;15.58;55.31;101245.69;4897432;29;45352;-73
2022/09/23 05:48:41;;;;;;;;;16.25;16.00;;;;;15.52;55.12;101238.78;4891840;28;45353;-73
2022/09/23 05:51:11;;;;;;;;;18.75;17.25;;;;;15.55;55.22;101244.03;4903289;29;45586;-73
2022/09/23 05:53:38;;;;;;;;;18.50;16.25;;;;;15.49;55.42;101233.53;4885957;29;45519;-72
2022/09/23 05:56:04;;;;;;;;;19.75;17.75;;;;;15.52;55.27;101241.47;4899098;28;46171;-72
2022/09/23 05:58:30;;;;;;;;;21.75;18.00;;;;;15.54;55.47;101244.97;4908988;28;45421;-72
2022/09/23 06:00:55;;;;;;;;;14.25;14.25;;;;;15.51;55.17;101239.72;4906863;28;45328;-71
2022/09/23 06:03:21;;;;;;;;;17.25;17.00;;;;;15.57;55.52;101246.66;4890123;29;45575;-71
2022/09/23 06:05:47;;;;;;;;;17.50;15.25;;;;;15.25;55.39;101194.28;4886263;28;47683;-70
2022/09/23 06:08:13;;;;;;;;;17.75;16.00;;;;;15.39;55.52;101221.47;4900975;29;46164;-71
2022/09/23 06:10:42;;;;;;;;;18.75;17.75;;;;;15.59;55.24;101258.22;4902962;29;45464;-71
2022/09/23 06:13:08;;;;;;;;;15.75;15.75;;;;;15.36;55.12;101227.84;4905069;28;45508;-71
2022/09/23 06:15:34;;;;;;;;;16.75;16.25;;;;;15.36;55.20;101226.97;4901673;28;46354;-70
2022/09/23 06:18:00;;;;;;;;;13.50;13.50;;;;;15.54;54.98;101244.97;4886031;29;45285;-70
2022/09/23 06:20:26;;;;;;;;;16.00;14.00;;;;;15.34;55.29;101210.03;4901068;29;45470;-71
2022/09/23 06:22:51;;;;;;;;;13.75;9.75;;;;;15.36;55.13;101210.81;4903174;29;45635;-71
2022/09/23 06:25:18;;;;;;;;;20.50;14.75;;;;;15.39;54.85;101213.38;4884151;29;48554;-71
2022/09/23 06:27:53;;;;;;;;;14.00;14.00;;;;;15.38;54.95;101220.59;4899260;29;45858;-70
2022/09/23 06:30:18;;;;;;;;;15.00;14.75;;;;;15.38;55.12;101228.66;4899437;29;45550;-70
2022/09/23 06:32:53;;;;;;;;;20.25;16.25;;;;;15.18;54.95;101194.59;4886083;29;45423;-70
2022/09/23 06:35:19;;;;;;;;;17.75;16.00;;;;;15.43;54.94;101235.63;4899936;29;46374;-70
2022/09/23 06:37:45;;;;;;;;;14.75;14.00;;;;;15.34;54.76;101218.09;4902072;28;45312;-70
2022/09/23 06:40:11;;;;;;;;;15.50;15.50;;;;;15.43;54.99;101231.13;4902303;29;45415;-70
2022/09/23 06:42:36;;;;;;;;;14.00;14.00;;;;;15.34;54.99;101215.41;4900244;29;45501;-70
2022/09/23 06:45:02;;;;;;;;;14.50;12.75;;;;;15.59;55.05;101257.38;4899429;29;45454;-71
2022/09/23 06:47:30;;;;;;;;;19.25;17.25;;;;;15.59;55.11;101257.38;4897882;28;45661;-70
2022/09/23 06:49:56;;;;;;;;;18.25;16.75;;;;;15.42;55.07;101234.78;4902415;29;45308;-70
2022/09/23 06:52:21;;;;;;;;;19.00;16.75;;;;;15.59;54.79;101254.66;4883321;29;45341;-70
2022/09/23 06:54:47;;;;;;;;;18.50;17.50;;;;;15.25;54.99;101192.50;4900413;28;45262;-70
2022/09/23 06:57:13;;;;;;;;;19.00;18.00;;;;;15.37;55.00;101212.59;4901948;29;45317;-70
2022/09/23 06:59:38;;;;;;;;;20.75;19.25;;;;;15.39;54.66;101221.47;4885568;29;45328;-70
2022/09/23 07:02:05;;;;;;;;;16.25;15.75;;;;;15.62;54.56;101257.19;4884328;29;46022;-70
2022/09/23 07:04:30;;;;;;;;;16.25;14.75;;;;;15.32;54.60;101220.00;4902540;28;46552;-70
2022/09/23 07:06:56;;;;;;;;;22.25;19.50;;;;;15.46;54.64;101241.75;4900449;29;45478;-71
2022/09/23 07:09:21;;;;;;;;;21.50;19.50;;;;;15.47;54.60;101239.91;4880589;29;45466;-75
2022/09/23 07:11:47;;;;;;;;;19.25;18.25;;;;;15.56;54.55;101250.28;4891229;28;45608;-74
2022/09/23 07:14:13;;;;;;;;;29.00;24.75;;;;;15.57;54.50;101247.53;4904073;28;46358;-76
2022/09/23 07:16:38;;;;;;;;;22.50;21.25;;;;;15.59;54.50;101258.22;4889964;28;45395;-75
2022/09/23 07:19:04;;;;;;;;;22.50;21.75;;;;;15.65;55.05;101254.38;4880570;29;45458;-75
2022/09/23 07:21:29;;;;;;;;;21.50;18.00;;;;;15.56;54.63;101240.38;4899682;29;45689;-75
2022/09/23 07:23:56;;;;;;;;;23.00;19.50;;;;;15.65;54.20;101255.25;4901772;29;46976;-75
2022/09/23 07:26:23;;;;;;;;;20.00;18.75;;;;;15.50;54.28;101220.97;4901495;28;45328;-74
2022/09/23 07:28:54;;;;;;;;;23.00;21.25;;;;;15.68;54.40;101248.84;4900904;29;45598;-75
2022/09/23 07:31:19;;;;;;;;;18.50;17.50;;;;;15.68;54.44;101248.84;4882946;29;46003;-74
2022/09/23 07:33:45;;;;;;;;;21.25;20.00;;;;;15.71;54.61;101252.28;4902029;29;45389;-74
2022/09/23 07:36:16;;;;;;;;;18.50;17.25;;;;;15.72;54.92;101254.03;4901634;28;45253;-74
2022/09/23 07:38:41;;;;;;;;;18.75;17.50;;;;;15.73;54.91;101261.16;4902073;29;45432;-74
2022/09/23 07:41:09;;;;;;;;;21.25;21.25;;;;;15.79;54.80;101261.88;4900751;29;45380;-75
2022/09/23 07:43:36;;;;;;;;;24.25;21.00;;;;;15.77;54.67;101259.25;4900898;29;46175;-73
2022/09/23 07:46:04;;;;;;;;;23.25;21.00;;;;;15.76;54.69;101262.00;4901467;29;45653;-74
2022/09/23 07:48:30;;;;;;;;;20.00;17.75;;;;;15.78;54.82;101257.41;4899409;29;45422;-75
2022/09/23 07:50:56;;;;;;;;;19.75;18.25;;;;;15.66;55.14;101243.53;4901119;29;45391;-74
2022/09/23 07:53:22;;;;;;;;;23.00;19.50;;;;;15.70;54.94;101245.16;4901299;29;45531;-75
2022/09/23 07:55:52;;;;;;;;;23.25;21.50;;;;;15.81;54.93;101259.97;4896504;29;45791;-75
2022/09/23 07:58:18;;;;;;;;;20.25;20.00;;;;;15.84;54.63;101270.59;4896553;29;45338;-74
2022/09/23 08:00:43;;;;;;;;;17.25;13.00;;;;;15.84;54.91;101279.53;4881251;29;45690;-75
2022/09/23 08:03:08;;;;;;;;;25.25;23.50;;;;;15.87;55.01;101275.81;4900194;29;46337;-75
2022/09/23 08:05:35;;;;;;;;;27.50;24.00;;;;;15.81;55.23;101268.06;4882734;29;45861;-75
2022/09/23 08:08:01;;;;;;;;;24.50;23.50;;;;;15.92;54.81;101284.56;4898354;29;45501;-75
2022/09/23 08:10:26;;;;;;;;;22.75;22.75;;;;;15.95;55.10;101284.41;4881361;28;45696;-73
2022/09/23 08:12:52;;;;;;;;;22.50;22.50;;;;;15.85;54.70;101266.94;4883776;28;46799;-74
2022/09/23 08:15:17;;;;;;;;;24.00;23.25;;;;;15.88;54.56;101274.88;4903400;28;45360;-75
2022/09/23 08:17:43;;;;;;;;;20.00;20.00;;;;;15.96;54.56;101279.94;4883578;29;45816;-75
2022/09/23 08:20:43;;;;;;;;;26.50;21.50;;;;;16.00;54.36;101289.59;4899384;29;45665;-76
2022/09/23 08:22:57;;;;;;;;;24.75;22.75;;;;;15.98;54.32;101292.34;4885929;29;45646;-72
2022/09/23 08:25:23;;;;;;;;;20.00;20.00;;;;;15.97;54.35;101285.25;4883546;29;45633;-74
2022/09/23 08:27:58;;;;;;;;;19.50;19.50;;;;;15.74;54.36;101232.44;4903369;28;45538;-72
2022/09/23 08:30:24;;;;;;;;;22.50;21.75;;;;;16.06;54.40;101287.50;4900491;28;45625;-71
2022/09/23 08:32:52;;;;;;;;;22.50;21.50;;;;;16.09;54.70;101292.75;4883653;29;47980;-72
2022/09/23 08:35:20;;;;;;;;;22.25;20.50;;;;;15.99;54.30;101261.81;4904238;28;45743;-71
2022/09/23 08:37:45;;;;;;;;;24.50;21.00;;;;;16.18;54.17;101290.56;4888821;29;45697;-72
2022/09/23 08:40:13;;;;;;;;;19.75;19.75;;;;;16.06;53.79;101270.47;4898438;29;45601;-72
2022/09/23 08:42:44;;;;;;;;;20.75;19.75;;;;;16.05;53.85;101260.63;4902478;29;46342;-72
2022/09/23 08:45:19;;;;;;;;;18.75;17.00;;;;;16.13;53.83;101260.28;4903017;29;45738;-72
2022/09/23 08:48:00;;;;;;;;;19.75;17.50;;;;;16.09;53.50;101256.88;4883284;29;45572;-71
2022/09/23 08:50:40;;;;;;;;;17.75;16.75;;;;;16.10;52.63;101254.09;4902053;29;45478;-71
2022/09/23 08:53:31;;;;;;;;;18.50;17.50;;;;;16.35;52.95;101281.69;4884470;29;47771;-71
2022/09/23 08:55:59;;;;;;;;;16.25;15.25;;;;;16.35;53.63;101285.22;4903336;28;45732;-71
2022/09/23 08:58:37;;;;;;;;;21.25;19.00;;;;;16.44;53.01;101287.50;4896633;28;45302;-71
2022/09/23 09:01:18;;;;;;;;;17.00;17.00;;;;;16.40;53.15;101279.63;4903581;28;45357;-71
2022/09/23 09:03:50;;;;;;;;;17.00;17.00;;;;;16.49;52.92;101293.53;4899725;29;45978;-71
2022/09/23 09:06:29;;;;;;;;;18.00;17.50;;;;;16.52;53.23;101287.09;4898948;28;45436;-71
2022/09/23 09:08:58;;;;;;;;;14.75;14.75;;;;;16.43;53.29;101269.56;4885332;29;45465;-71
2022/09/23 09:11:37;;;;;;;;;18.00;18.00;;;;;16.51;53.20;101274.59;4886170;29;45658;-71
2022/09/23 09:14:33;;;;;;;;;23.00;20.25;;;;;16.60;53.49;101284.91;4903102;28;45805;-71
2022/09/23 09:17:12;;;;;;;;;18.50;18.25;;;;;16.50;53.49;101264.75;4902903;28;45471;-71
2022/09/23 09:19:56;;;;;;;;;23.25;19.50;;;;;16.64;52.98;101274.88;4903982;29;45658;-71
2022/09/23 09:22:48;;;;;;;;;20.50;19.25;;;;;16.62;53.40;101271.38;4902030;28;45518;-71
2022/09/23 09:25:36;;;;;;;;;23.00;20.75;;;;;16.67;53.46;101272.00;4897853;28;46130;-71
2022/09/23 09:28:12;;;;;;;;;22.25;22.00;;;;;16.61;52.73;101248.09;4893541;29;45740;-70
2022/09/23 09:30:37;;;;;;;;;25.75;23.25;;;;;16.74;53.01;101265.38;4902506;29;45450;-74
2022/09/23 09:33:12;;;;;;;;;29.25;26.50;;;;;16.60;54.17;101243.63;4899945;29;45508;-87
2022/09/23 09:35:43;;;;;;;;;27.50;26.00;;;;;16.88;53.33;101272.81;4901437;29;45349;-79
2022/09/23 09:38:09;;;;;;;;;26.00;24.25;;;;;16.75;53.73;101245.53;4902154;29;45571;-70
2022/09/23 09:40:47;;;;;;;;;30.50;25.50;;;;;16.84;53.47;101257.72;4894253;28;46594;-70
2022/09/23 09:43:22;;;;;;;;;29.00;26.00;;;;;16.78;53.29;101231.06;4903351;28;45362;-70
2022/09/23 09:45:54;;;;;;;;;32.75;28.75;;;;;17.04;53.62;101265.69;4888519;29;47554;-71
2022/09/23 09:48:37;;;;;;;;;30.50;27.50;;;;;17.09;53.62;101264.56;4901199;29;45329;-70
2022/09/23 09:51:21;;;;;;;;;31.25;27.25;;;;;17.02;53.51;101240.63;4884463;29;45576;-71
2022/09/23 09:53:50;;;;;;;;;31.50;28.25;;;;;17.08;53.72;101243.97;4900729;29;45412;-71
2022/09/23 09:56:18;;;;;;;;;34.25;29.50;;;;;17.16;53.79;101252.53;4893143;29;46248;-71
2022/09/23 09:58:54;;;;;;;;;34.50;28.25;;;;;17.12;53.85;101232.03;4884173;29;45603;-71
2022/09/23 10:01:27;;;;;;;;;24.75;24.25;;;;;17.34;53.17;101267.75;4897725;29;47289;-70
2022/09/23 10:03:55;;;;;;;;;30.50;26.00;;;;;17.35;53.57;101261.38;4900735;29;45660;-70
2022/09/23 10:06:31;;;;;;;;;24.50;21.75;;;;;17.40;53.18;101261.16;4899600;28;48080;-70
2022/09/23 10:09:08;;;;;;;;;28.25;20.00;;;;;17.48;52.03;101264.31;4897015;29;46016;-70
2022/09/23 10:11:35;;;;;;;;;33.25;30.00;;;;;17.33;52.14;101221.97;4894531;29;45507;-70
2022/09/23 10:14:16;;;;;;;;;28.75;26.00;;;;;17.53;51.90;101254.16;4887695;29;45305;-70
2022/09/23 10:16:43;;;;;;;;;26.25;25.75;;;;;17.49;52.21;101238.19;4901984;28;45833;-70
2022/09/23 10:19:26;;;;;;;;;30.00;24.75;;;;;17.43;52.45;101225.06;4899756;29;45653;-70
2022/09/23 10:21:58;;;;;;;;;23.50;22.25;;;;;17.48;52.08;101223.84;4899061;28;45554;-70
2022/09/23 10:24:28;;;;;;;;;30.00;26.25;;;;;17.51;51.39;101212.88;4884630;29;45545;-70
2022/09/23 10:27:02;;;;;;;;;25.75;23.75;;;;;17.62;52.02;101220.38;4904462;28;46274;-70
2022/09/23 10:29:31;;;;;;;;;22.50;22.50;;;;;17.83;51.83;101239.94;4884258;29;45408;-70
2022/09/23 10:32:22;;;;;;;;;24.50;23.50;;;;;17.89;51.95;101230.66;4899382;29;45470;-70
2022/09/23 10:34:53;;;;;;;;;23.50;22.75;;;;;17.70;51.24;101198.38;4895225;29;45580;-70
2022/09/23 10:37:48;;;;;;;;;32.50;28.25;;;;;17.58;51.29;101181.88;4884256;29;47203;-70
2022/09/23 10:46:38;;;;;;;;;17.50;16.25;;;;;18.06;50.00;101232.41;4902689;28;45822;-70
2022/09/23 10:49:26;;;;;;;;;20.00;20.00;;;;;18.12;50.22;101232.09;4901855;28;46245;-70
2022/09/23 10:51:52;;;;;;;;;20.75;17.25;;;;;18.16;50.25;101228.25;4905812;28;45571;-70
2022/09/23 10:54:42;;;;;;;;;20.50;18.50;;;;;18.22;50.06;101227.03;4900818;28;45429;-70
2022/09/23 10:57:39;;;;;;;;;13.25;12.50;;;;;18.27;49.90;101222.22;4899180;29;45388;-70
2022/09/23 11:00:16;;;;;;;;;16.50;14.25;;;;;18.33;49.54;101216.50;4899293;29;45678;-71
2022/09/23 11:03:17;;;;;;;;;17.00;14.00;;;;;18.39;49.14;101213.41;4883416;29;45557;-70
2022/09/23 11:05:48;;;;;;;;;17.00;16.00;;;;;18.44;48.57;101215.84;4870937;29;45598;-70
2022/09/23 11:08:32;;;;;;;;;16.75;14.75;;;;;18.49;49.20;101209.25;4883638;29;45662;-70
2022/09/23 11:11:23;;;;;;;;;17.00;14.00;;;;;18.55;48.90;101204.44;4882333;29;46912;-70
2022/09/23 11:14:15;;;;;;;;;12.50;12.50;;;;;18.59;49.07;101198.72;4900154;28;45671;-70
2022/09/23 11:17:01;;;;;;;;;12.75;11.75;;;;;18.65;48.36;101203.78;4890317;28;45751;-70
2022/09/23 11:19:31;;;;;;;;;18.50;18.00;;;;;18.69;48.67;101202.66;4894998;28;45503;-69
2022/09/23 11:22:08;;;;;;;;;14.75;13.50;;;;;18.72;48.07;101198.88;4879636;29;47324;-69
2022/09/23 11:24:49;;;;;;;;;20.25;17.75;;;;;18.70;47.76;101188.16;4898225;29;45951;-70
2022/09/23 11:27:50;;;;;;;;;15.00;13.75;;;;;18.80;48.45;101195.75;4886889;29;45492;-70
2022/09/23 11:30:19;;;;;;;;;19.25;14.00;;;;;18.84;47.88;101191.91;4894753;29;45776;-70
2022/09/23 11:32:55;;;;;;;;;15.25;14.25;;;;;18.86;47.78;101189.97;4897908;29;46497;-70
2022/09/23 11:35:31;;;;;;;;;16.75;14.00;;;;;18.83;47.06;101173.97;4893806;29;46033;-70
2022/09/23 11:38:06;;;;;;;;;14.75;13.50;;;;;18.90;47.34;101186.13;4895759;29;45833;-70
2022/09/23 11:40:37;;;;;;;;;21.00;19.75;;;;;18.92;47.21;101186.91;4897621;29;45741;-70